Weather at Giza Embaba Airport [CLOSED]

Public forecast

Using degrees Celsius for public forecast. Weather courtesy of forecast.io.

Closest aviation weather report (METAR) to Giza Embaba Airport

Closest report is Cairo International Airport, 11.5 nm (21.3 km) ENE. Retrieved 2020/11/28 16:30 UTC (0 seconds ago):

HECA 281630Z 33003KT 9999 SCT025 19/10 Q1018 NOSIG

Closest aviation forecast (TAF) to Giza Embaba Airport

Closest forecast is Cairo International Airport, 11.5 nm (21.3 km) ENE. Retrieved 2020/11/28 12:57 UTC (3 hours ago):

TAF HECA 281100Z 2812/2918 29008KT 9999 SCT025